sensor_id;sensor_type;location;lat;lon;timestamp;P1;durP1;ratioP1;P2;durP2;ratioP2
84411;SDS011;74609;44.028;20.950;2024-01-15T00:00:41;41.70;;;25.17;;
84411;SDS011;74609;44.028;20.950;2024-01-15T00:03:08;44.47;;;25.88;;
84411;SDS011;74609;44.028;20.950;2024-01-15T00:05:34;43.35;;;25.77;;
84411;SDS011;74609;44.028;20.950;2024-01-15T00:08:01;40.55;;;23.50;;
84411;SDS011;74609;44.028;20.950;2024-01-15T00:10:27;43.67;;;24.17;;
84411;SDS011;74609;44.028;20.950;2024-01-15T00:12:53;33.63;;;20.40;;
84411;SDS011;74609;44.028;20.950;2024-01-15T00:15:19;34.90;;;21.00;;
84411;SDS011;74609;44.028;20.950;2024-01-15T00:17:45;32.80;;;19.95;;
84411;SDS011;74609;44.028;20.950;2024-01-15T00:20:11;33.17;;;20.58;;
84411;SDS011;74609;44.028;20.950;2024-01-15T00:22:37;38.92;;;23.33;;
84411;SDS011;74609;44.028;20.950;2024-01-15T00:25:03;33.58;;;20.98;;
84411;SDS011;74609;44.028;20.950;2024-01-15T00:27:30;39.78;;;22.52;;
84411;SDS011;74609;44.028;20.950;2024-01-15T00:29:56;30.45;;;19.77;;
84411;SDS011;74609;44.028;20.950;2024-01-15T00:32:22;38.15;;;22.15;;
84411;SDS011;74609;44.028;20.950;2024-01-15T00:34:48;38.17;;;22.48;;
84411;SDS011;74609;44.028;20.950;2024-01-15T00:37:14;33.75;;;21.20;;
84411;SDS011;74609;44.028;20.950;2024-01-15T00:39:40;32.17;;;20.50;;
84411;SDS011;74609;44.028;20.950;2024-01-15T00:42:07;37.30;;;22.40;;
84411;SDS011;74609;44.028;20.950;2024-01-15T00:44:33;38.30;;;21.40;;
84411;SDS011;74609;44.028;20.950;2024-01-15T00:46:59;34.13;;;20.27;;
84411;SDS011;74609;44.028;20.950;2024-01-15T00:49:26;31.08;;;19.35;;
84411;SDS011;74609;44.028;20.950;2024-01-15T00:51:53;31.33;;;19.35;;
84411;SDS011;74609;44.028;20.950;2024-01-15T00:54:19;32.65;;;19.25;;
84411;SDS011;74609;44.028;20.950;2024-01-15T00:56:45;30.02;;;18.27;;
84411;SDS011;74609;44.028;20.950;2024-01-15T00:59:11;31.75;;;18.98;;
84411;SDS011;74609;44.028;20.950;2024-01-15T01:01:40;33.08;;;19.20;;
84411;SDS011;74609;44.028;20.950;2024-01-15T01:04:08;30.90;;;19.05;;
84411;SDS011;74609;44.028;20.950;2024-01-15T01:06:34;30.10;;;18.05;;
84411;SDS011;74609;44.028;20.950;2024-01-15T01:09:00;29.02;;;18.05;;
84411;SDS011;74609;44.028;20.950;2024-01-15T01:11:26;26.45;;;16.63;;
84411;SDS011;74609;44.028;20.950;2024-01-15T01:13:52;26.77;;;16.65;;
84411;SDS011;74609;44.028;20.950;2024-01-15T01:16:18;27.80;;;17.13;;
84411;SDS011;74609;44.028;20.950;2024-01-15T01:18:44;27.13;;;17.75;;
84411;SDS011;74609;44.028;20.950;2024-01-15T01:21:10;27.75;;;16.33;;
84411;SDS011;74609;44.028;20.950;2024-01-15T01:23:37;26.48;;;17.42;;
84411;SDS011;74609;44.028;20.950;2024-01-15T01:26:03;26.77;;;16.20;;
84411;SDS011;74609;44.028;20.950;2024-01-15T01:28:29;27.20;;;16.48;;
84411;SDS011;74609;44.028;20.950;2024-01-15T01:30:55;28.75;;;17.95;;
84411;SDS011;74609;44.028;20.950;2024-01-15T01:33:21;29.48;;;17.92;;
84411;SDS011;74609;44.028;20.950;2024-01-15T01:35:47;27.60;;;16.85;;
84411;SDS011;74609;44.028;20.950;2024-01-15T01:38:13;25.58;;;16.63;;
84411;SDS011;74609;44.028;20.950;2024-01-15T01:40:39;27.05;;;17.95;;
84411;SDS011;74609;44.028;20.950;2024-01-15T01:43:05;29.65;;;17.67;;
84411;SDS011;74609;44.028;20.950;2024-01-15T01:45:33;25.20;;;16.77;;
84411;SDS011;74609;44.028;20.950;2024-01-15T01:47:59;26.60;;;15.75;;
84411;SDS011;74609;44.028;20.950;2024-01-15T01:50:26;26.00;;;16.70;;
84411;SDS011;74609;44.028;20.950;2024-01-15T01:52:52;25.70;;;15.68;;
84411;SDS011;74609;44.028;20.950;2024-01-15T01:55:19;27.52;;;15.45;;
84411;SDS011;74609;44.028;20.950;2024-01-15T01:57:45;27.10;;;16.63;;
84411;SDS011;74609;44.028;20.950;2024-01-15T02:00:12;27.73;;;16.20;;
84411;SDS011;74609;44.028;20.950;2024-01-15T02:02:38;28.45;;;15.95;;
84411;SDS011;74609;44.028;20.950;2024-01-15T02:05:04;25.88;;;15.70;;
84411;SDS011;74609;44.028;20.950;2024-01-15T02:07:30;26.25;;;15.20;;
84411;SDS011;74609;44.028;20.950;2024-01-15T02:09:57;27.92;;;17.23;;
84411;SDS011;74609;44.028;20.950;2024-01-15T02:12:23;27.73;;;16.17;;
84411;SDS011;74609;44.028;20.950;2024-01-15T02:14:49;26.55;;;17.10;;
84411;SDS011;74609;44.028;20.950;2024-01-15T02:17:15;28.52;;;16.55;;
84411;SDS011;74609;44.028;20.950;2024-01-15T02:19:41;24.40;;;14.35;;
84411;SDS011;74609;44.028;20.950;2024-01-15T02:22:07;26.48;;;15.63;;
84411;SDS011;74609;44.028;20.950;2024-01-15T02:24:33;26.25;;;14.65;;
84411;SDS011;74609;44.028;20.950;2024-01-15T02:26:59;26.83;;;16.13;;
84411;SDS011;74609;44.028;20.950;2024-01-15T02:29:25;27.38;;;15.65;;
84411;SDS011;74609;44.028;20.950;2024-01-15T02:31:52;27.05;;;15.57;;
84411;SDS011;74609;44.028;20.950;2024-01-15T02:34:18;31.92;;;17.30;;
84411;SDS011;74609;44.028;20.950;2024-01-15T02:36:44;32.22;;;17.27;;
84411;SDS011;74609;44.028;20.950;2024-01-15T02:39:10;31.20;;;17.02;;
84411;SDS011;74609;44.028;20.950;2024-01-15T02:41:36;28.40;;;16.00;;
84411;SDS011;74609;44.028;20.950;2024-01-15T02:44:02;31.42;;;17.58;;
84411;SDS011;74609;44.028;20.950;2024-01-15T02:46:28;28.48;;;16.42;;
84411;SDS011;74609;44.028;20.950;2024-01-15T02:48:54;26.83;;;15.68;;
84411;SDS011;74609;44.028;20.950;2024-01-15T02:51:20;24.65;;;15.68;;
84411;SDS011;74609;44.028;20.950;2024-01-15T02:53:46;24.15;;;14.82;;
84411;SDS011;74609;44.028;20.950;2024-01-15T02:56:13;27.23;;;17.02;;
84411;SDS011;74609;44.028;20.950;2024-01-15T02:58:42;28.90;;;16.20;;
84411;SDS011;74609;44.028;20.950;2024-01-15T03:01:08;27.15;;;15.55;;
84411;SDS011;74609;44.028;20.950;2024-01-15T03:03:34;29.33;;;16.38;;
84411;SDS011;74609;44.028;20.950;2024-01-15T03:06:01;24.58;;;13.57;;
84411;SDS011;74609;44.028;20.950;2024-01-15T03:08:27;21.05;;;12.55;;
84411;SDS011;74609;44.028;20.950;2024-01-15T03:10:54;19.13;;;11.45;;
84411;SDS011;74609;44.028;20.950;2024-01-15T03:13:20;20.00;;;12.75;;
84411;SDS011;74609;44.028;20.950;2024-01-15T03:15:46;21.27;;;13.48;;
84411;SDS011;74609;44.028;20.950;2024-01-15T03:18:12;21.30;;;13.35;;
84411;SDS011;74609;44.028;20.950;2024-01-15T03:20:38;21.17;;;12.63;;
84411;SDS011;74609;44.028;20.950;2024-01-15T03:23:04;24.08;;;13.05;;
84411;SDS011;74609;44.028;20.950;2024-01-15T03:25:31;20.23;;;12.82;;
84411;SDS011;74609;44.028;20.950;2024-01-15T03:27:57;21.30;;;13.20;;
84411;SDS011;74609;44.028;20.950;2024-01-15T03:30:23;23.35;;;14.25;;
84411;SDS011;74609;44.028;20.950;2024-01-15T03:32:49;24.23;;;14.00;;
84411;SDS011;74609;44.028;20.950;2024-01-15T03:35:15;23.70;;;14.82;;
84411;SDS011;74609;44.028;20.950;2024-01-15T03:37:41;21.08;;;13.30;;
84411;SDS011;74609;44.028;20.950;2024-01-15T03:40:08;22.15;;;13.35;;
84411;SDS011;74609;44.028;20.950;2024-01-15T03:42:34;21.77;;;11.68;;
84411;SDS011;74609;44.028;20.950;2024-01-15T03:45:00;17.55;;;11.25;;
84411;SDS011;74609;44.028;20.950;2024-01-15T03:47:26;20.60;;;12.55;;
84411;SDS011;74609;44.028;20.950;2024-01-15T03:49:52;19.40;;;11.43;;
84411;SDS011;74609;44.028;20.950;2024-01-15T03:52:18;24.17;;;12.38;;
84411;SDS011;74609;44.028;20.950;2024-01-15T03:54:44;17.10;;;10.68;;
84411;SDS011;74609;44.028;20.950;2024-01-15T03:57:10;20.92;;;12.43;;
84411;SDS011;74609;44.028;20.950;2024-01-15T03:59:36;22.58;;;13.40;;
84411;SDS011;74609;44.028;20.950;2024-01-15T04:02:03;22.05;;;13.38;;
84411;SDS011;74609;44.028;20.950;2024-01-15T04:04:30;21.13;;;13.90;;
84411;SDS011;74609;44.028;20.950;2024-01-15T04:06:56;23.02;;;13.52;;
84411;SDS011;74609;44.028;20.950;2024-01-15T04:09:22;18.38;;;12.20;;
84411;SDS011;74609;44.028;20.950;2024-01-15T04:11:48;22.40;;;12.93;;
84411;SDS011;74609;44.028;20.950;2024-01-15T04:14:14;23.58;;;13.10;;
84411;SDS011;74609;44.028;20.950;2024-01-15T04:16:41;20.58;;;12.95;;
84411;SDS011;74609;44.028;20.950;2024-01-15T04:19:07;21.35;;;12.35;;
84411;SDS011;74609;44.028;20.950;2024-01-15T04:21:35;19.10;;;12.35;;
84411;SDS011;74609;44.028;20.950;2024-01-15T04:24:01;21.50;;;13.68;;
84411;SDS011;74609;44.028;20.950;2024-01-15T04:26:28;19.38;;;12.32;;
84411;SDS011;74609;44.028;20.950;2024-01-15T04:28:54;20.20;;;12.40;;
84411;SDS011;74609;44.028;20.950;2024-01-15T04:31:21;18.98;;;12.82;;
84411;SDS011;74609;44.028;20.950;2024-01-15T04:33:47;19.70;;;11.93;;
84411;SDS011;74609;44.028;20.950;2024-01-15T04:36:13;24.70;;;14.07;;
84411;SDS011;74609;44.028;20.950;2024-01-15T04:38:39;23.88;;;13.63;;
84411;SDS011;74609;44.028;20.950;2024-01-15T04:41:05;23.38;;;14.13;;
84411;SDS011;74609;44.028;20.950;2024-01-15T04:43:31;21.50;;;13.63;;
84411;SDS011;74609;44.028;20.950;2024-01-15T04:45:57;27.27;;;15.98;;
84411;SDS011;74609;44.028;20.950;2024-01-15T04:48:24;23.08;;;14.02;;
84411;SDS011;74609;44.028;20.950;2024-01-15T04:50:50;25.63;;;15.25;;
84411;SDS011;74609;44.028;20.950;2024-01-15T04:53:16;28.73;;;16.85;;
84411;SDS011;74609;44.028;20.950;2024-01-15T04:55:42;23.98;;;13.98;;
84411;SDS011;74609;44.028;20.950;2024-01-15T04:58:08;22.27;;;13.80;;
84411;SDS011;74609;44.028;20.950;2024-01-15T05:00:35;23.13;;;13.82;;
84411;SDS011;74609;44.028;20.950;2024-01-15T05:03:01;25.33;;;14.68;;
84411;SDS011;74609;44.028;20.950;2024-01-15T05:05:27;22.38;;;13.65;;
84411;SDS011;74609;44.028;20.950;2024-01-15T05:07:53;22.75;;;13.93;;
84411;SDS011;74609;44.028;20.950;2024-01-15T05:10:19;24.40;;;14.57;;
84411;SDS011;74609;44.028;20.950;2024-01-15T05:12:45;24.38;;;13.55;;
84411;SDS011;74609;44.028;20.950;2024-01-15T05:15:11;24.80;;;15.52;;
84411;SDS011;74609;44.028;20.950;2024-01-15T05:17:37;22.80;;;14.23;;
84411;SDS011;74609;44.028;20.950;2024-01-15T05:20:03;24.98;;;13.48;;
84411;SDS011;74609;44.028;20.950;2024-01-15T05:22:30;26.20;;;17.00;;
84411;SDS011;74609;44.028;20.950;2024-01-15T05:24:56;30.95;;;16.73;;
84411;SDS011;74609;44.028;20.950;2024-01-15T05:27:22;27.55;;;15.73;;
84411;SDS011;74609;44.028;20.950;2024-01-15T05:29:48;27.17;;;16.15;;
84411;SDS011;74609;44.028;20.950;2024-01-15T05:32:14;28.17;;;17.48;;
84411;SDS011;74609;44.028;20.950;2024-01-15T05:34:40;26.20;;;16.10;;
84411;SDS011;74609;44.028;20.950;2024-01-15T05:37:06;27.05;;;15.23;;
84411;SDS011;74609;44.028;20.950;2024-01-15T05:39:32;23.40;;;14.25;;
84411;SDS011;74609;44.028;20.950;2024-01-15T05:41:58;24.38;;;14.48;;
84411;SDS011;74609;44.028;20.950;2024-01-15T05:44:25;24.38;;;14.60;;
84411;SDS011;74609;44.028;20.950;2024-01-15T05:46:51;23.10;;;15.00;;
84411;SDS011;74609;44.028;20.950;2024-01-15T05:49:17;27.58;;;16.40;;
84411;SDS011;74609;44.028;20.950;2024-01-15T05:51:43;31.38;;;16.25;;
84411;SDS011;74609;44.028;20.950;2024-01-15T05:54:09;24.45;;;15.30;;
84411;SDS011;74609;44.028;20.950;2024-01-15T05:56:35;24.33;;;13.20;;
84411;SDS011;74609;44.028;20.950;2024-01-15T05:59:02;26.08;;;14.38;;
84411;SDS011;74609;44.028;20.950;2024-01-15T06:01:28;22.35;;;13.98;;
84411;SDS011;74609;44.028;20.950;2024-01-15T06:03:54;26.80;;;16.63;;
84411;SDS011;74609;44.028;20.950;2024-01-15T06:06:20;26.92;;;17.17;;
84411;SDS011;74609;44.028;20.950;2024-01-15T06:08:46;31.52;;;19.77;;
84411;SDS011;74609;44.028;20.950;2024-01-15T06:11:13;27.70;;;17.17;;
84411;SDS011;74609;44.028;20.950;2024-01-15T06:13:39;31.42;;;18.02;;
84411;SDS011;74609;44.028;20.950;2024-01-15T06:16:12;29.55;;;18.48;;
84411;SDS011;74609;44.028;20.950;2024-01-15T06:18:39;29.60;;;19.10;;
84411;SDS011;74609;44.028;20.950;2024-01-15T06:21:05;27.70;;;18.05;;
84411;SDS011;74609;44.028;20.950;2024-01-15T06:23:31;28.60;;;18.00;;
84411;SDS011;74609;44.028;20.950;2024-01-15T06:25:57;38.38;;;21.23;;
84411;SDS011;74609;44.028;20.950;2024-01-15T06:28:23;41.42;;;22.63;;
84411;SDS011;74609;44.028;20.950;2024-01-15T06:30:49;40.10;;;23.83;;
84411;SDS011;74609;44.028;20.950;2024-01-15T06:33:15;38.25;;;23.80;;
84411;SDS011;74609;44.028;20.950;2024-01-15T06:35:41;33.50;;;20.08;;
84411;SDS011;74609;44.028;20.950;2024-01-15T06:38:07;29.42;;;18.25;;
84411;SDS011;74609;44.028;20.950;2024-01-15T06:40:33;32.45;;;19.88;;
84411;SDS011;74609;44.028;20.950;2024-01-15T06:42:59;31.08;;;19.38;;
84411;SDS011;74609;44.028;20.950;2024-01-15T06:45:26;29.48;;;18.25;;
84411;SDS011;74609;44.028;20.950;2024-01-15T06:47:52;30.70;;;19.20;;
84411;SDS011;74609;44.028;20.950;2024-01-15T06:50:18;27.95;;;16.88;;
84411;SDS011;74609;44.028;20.950;2024-01-15T06:52:44;38.60;;;21.98;;
84411;SDS011;74609;44.028;20.950;2024-01-15T06:55:10;35.60;;;20.00;;
84411;SDS011;74609;44.028;20.950;2024-01-15T06:57:36;33.97;;;18.90;;
84411;SDS011;74609;44.028;20.950;2024-01-15T07:00:02;33.17;;;19.42;;
84411;SDS011;74609;44.028;20.950;2024-01-15T07:02:32;27.40;;;16.92;;
84411;SDS011;74609;44.028;20.950;2024-01-15T07:04:58;30.52;;;17.45;;
84411;SDS011;74609;44.028;20.950;2024-01-15T07:07:24;25.63;;;17.55;;
84411;SDS011;74609;44.028;20.950;2024-01-15T07:09:54;30.05;;;19.25;;
84411;SDS011;74609;44.028;20.950;2024-01-15T07:12:20;29.98;;;18.23;;
84411;SDS011;74609;44.028;20.950;2024-01-15T07:14:46;27.90;;;16.90;;
84411;SDS011;74609;44.028;20.950;2024-01-15T07:17:12;27.95;;;17.75;;
84411;SDS011;74609;44.028;20.950;2024-01-15T07:19:38;26.88;;;18.52;;
84411;SDS011;74609;44.028;20.950;2024-01-15T07:22:04;28.33;;;17.30;;
84411;SDS011;74609;44.028;20.950;2024-01-15T07:24:30;26.40;;;18.20;;
84411;SDS011;74609;44.028;20.950;2024-01-15T07:26:59;40.83;;;26.30;;
84411;SDS011;74609;44.028;20.950;2024-01-15T07:29:25;28.15;;;18.05;;
84411;SDS011;74609;44.028;20.950;2024-01-15T07:31:51;34.50;;;22.75;;
84411;SDS011;74609;44.028;20.950;2024-01-15T07:34:17;42.47;;;26.75;;
84411;SDS011;74609;44.028;20.950;2024-01-15T07:36:44;47.47;;;29.52;;
84411;SDS011;74609;44.028;20.950;2024-01-15T07:39:10;52.95;;;31.58;;
84411;SDS011;74609;44.028;20.950;2024-01-15T07:41:36;33.60;;;22.75;;
84411;SDS011;74609;44.028;20.950;2024-01-15T07:44:03;36.13;;;23.85;;
84411;SDS011;74609;44.028;20.950;2024-01-15T07:46:30;38.08;;;23.88;;
84411;SDS011;74609;44.028;20.950;2024-01-15T07:48:56;32.92;;;21.25;;
84411;SDS011;74609;44.028;20.950;2024-01-15T07:51:23;36.97;;;24.02;;
84411;SDS011;74609;44.028;20.950;2024-01-15T07:53:49;31.60;;;19.38;;
84411;SDS011;74609;44.028;20.950;2024-01-15T07:56:16;30.20;;;18.30;;
84411;SDS011;74609;44.028;20.950;2024-01-15T07:58:42;28.02;;;19.02;;
84411;SDS011;74609;44.028;20.950;2024-01-15T08:01:08;32.67;;;21.30;;
84411;SDS011;74609;44.028;20.950;2024-01-15T08:03:34;35.58;;;23.00;;
84411;SDS011;74609;44.028;20.950;2024-01-15T08:06:00;30.70;;;19.15;;
84411;SDS011;74609;44.028;20.950;2024-01-15T08:08:26;32.83;;;21.10;;
84411;SDS011;74609;44.028;20.950;2024-01-15T08:10:52;35.25;;;21.45;;
84411;SDS011;74609;44.028;20.950;2024-01-15T08:13:18;41.22;;;25.55;;
84411;SDS011;74609;44.028;20.950;2024-01-15T08:15:45;57.30;;;35.13;;
84411;SDS011;74609;44.028;20.950;2024-01-15T08:18:11;51.05;;;32.08;;
84411;SDS011;74609;44.028;20.950;2024-01-15T08:20:38;28.75;;;18.05;;
84411;SDS011;74609;44.028;20.950;2024-01-15T08:23:04;65.80;;;43.35;;
84411;SDS011;74609;44.028;20.950;2024-01-15T08:25:30;36.50;;;23.17;;
84411;SDS011;74609;44.028;20.950;2024-01-15T08:27:57;37.42;;;24.55;;
84411;SDS011;74609;44.028;20.950;2024-01-15T08:30:23;40.78;;;24.02;;
84411;SDS011;74609;44.028;20.950;2024-01-15T08:32:53;42.78;;;26.05;;
84411;SDS011;74609;44.028;20.950;2024-01-15T08:35:19;43.05;;;25.70;;
84411;SDS011;74609;44.028;20.950;2024-01-15T08:37:51;41.55;;;26.38;;
84411;SDS011;74609;44.028;20.950;2024-01-15T08:40:17;52.33;;;34.75;;
84411;SDS011;74609;44.028;20.950;2024-01-15T08:50:02;45.95;;;29.08;;
84411;SDS011;74609;44.028;20.950;2024-01-15T08:52:28;36.17;;;24.05;;
84411;SDS011;74609;44.028;20.950;2024-01-15T08:54:56;42.50;;;25.27;;
84411;SDS011;74609;44.028;20.950;2024-01-15T08:57:22;54.05;;;31.67;;
84411;SDS011;74609;44.028;20.950;2024-01-15T08:59:48;21.55;;;14.98;;
84411;SDS011;74609;44.028;20.950;2024-01-15T09:02:14;26.80;;;18.35;;
84411;SDS011;74609;44.028;20.950;2024-01-15T09:04:40;28.58;;;17.67;;
84411;SDS011;74609;44.028;20.950;2024-01-15T09:07:07;36.97;;;20.52;;
84411;SDS011;74609;44.028;20.950;2024-01-15T09:09:33;29.55;;;17.30;;
84411;SDS011;74609;44.028;20.950;2024-01-15T09:12:00;25.30;;;16.55;;
84411;SDS011;74609;44.028;20.950;2024-01-15T09:14:26;57.25;;;29.77;;
84411;SDS011;74609;44.028;20.950;2024-01-15T09:16:54;47.60;;;28.42;;
84411;SDS011;74609;44.028;20.950;2024-01-15T09:19:21;54.55;;;31.75;;
84411;SDS011;74609;44.028;20.950;2024-01-15T09:21:47;83.28;;;44.75;;
84411;SDS011;74609;44.028;20.950;2024-01-15T09:24:13;82.80;;;42.70;;
84411;SDS011;74609;44.028;20.950;2024-01-15T09:26:39;82.13;;;44.63;;
84411;SDS011;74609;44.028;20.950;2024-01-15T09:29:05;46.22;;;29.20;;
84411;SDS011;74609;44.028;20.950;2024-01-15T09:31:31;44.90;;;29.40;;
84411;SDS011;74609;44.028;20.950;2024-01-15T09:33:57;48.33;;;29.77;;
84411;SDS011;74609;44.028;20.950;2024-01-15T09:36:25;48.50;;;32.50;;
84411;SDS011;74609;44.028;20.950;2024-01-15T09:38:51;46.63;;;31.38;;
84411;SDS011;74609;44.028;20.950;2024-01-15T09:41:17;45.78;;;28.45;;
84411;SDS011;74609;44.028;20.950;2024-01-15T09:43:44;45.70;;;29.30;;
84411;SDS011;74609;44.028;20.950;2024-01-15T09:46:11;40.25;;;27.20;;
84411;SDS011;74609;44.028;20.950;2024-01-15T09:48:38;38.38;;;24.95;;
84411;SDS011;74609;44.028;20.950;2024-01-15T09:51:05;39.25;;;25.92;;
84411;SDS011;74609;44.028;20.950;2024-01-15T09:53:33;45.80;;;27.42;;
84411;SDS011;74609;44.028;20.950;2024-01-15T09:55:59;26.73;;;16.67;;
84411;SDS011;74609;44.028;20.950;2024-01-15T09:58:25;28.58;;;18.17;;
84411;SDS011;74609;44.028;20.950;2024-01-15T10:00:52;30.67;;;19.17;;
84411;SDS011;74609;44.028;20.950;2024-01-15T10:03:19;35.60;;;23.80;;
84411;SDS011;74609;44.028;20.950;2024-01-15T10:05:46;37.67;;;25.45;;
84411;SDS011;74609;44.028;20.950;2024-01-15T10:08:12;40.97;;;26.10;;
84411;SDS011;74609;44.028;20.950;2024-01-15T10:10:39;44.50;;;27.60;;
84411;SDS011;74609;44.028;20.950;2024-01-15T10:13:05;39.67;;;26.27;;
84411;SDS011;74609;44.028;20.950;2024-01-15T10:15:35;40.65;;;25.92;;
84411;SDS011;74609;44.028;20.950;2024-01-15T10:20:28;35.22;;;21.73;;
84411;SDS011;74609;44.028;20.950;2024-01-15T10:22:55;36.03;;;23.77;;
84411;SDS011;74609;44.028;20.950;2024-01-15T10:25:21;37.78;;;23.13;;
84411;SDS011;74609;44.028;20.950;2024-01-15T10:28:03;33.75;;;22.45;;
84411;SDS011;74609;44.028;20.950;2024-01-15T10:30:30;25.10;;;18.23;;
84411;SDS011;74609;44.028;20.950;2024-01-15T10:32:58;33.13;;;20.42;;
84411;SDS011;74609;44.028;20.950;2024-01-15T10:35:26;37.67;;;24.38;;
84411;SDS011;74609;44.028;20.950;2024-01-15T10:37:52;40.85;;;24.60;;
84411;SDS011;74609;44.028;20.950;2024-01-15T10:40:18;34.63;;;21.08;;
84411;SDS011;74609;44.028;20.950;2024-01-15T10:42:44;35.13;;;23.23;;
84411;SDS011;74609;44.028;20.950;2024-01-15T10:45:13;33.47;;;22.38;;
84411;SDS011;74609;44.028;20.950;2024-01-15T10:47:40;42.15;;;27.20;;
84411;SDS011;74609;44.028;20.950;2024-01-15T10:50:06;38.10;;;24.33;;
84411;SDS011;74609;44.028;20.950;2024-01-15T10:52:34;40.78;;;25.90;;
84411;SDS011;74609;44.028;20.950;2024-01-15T10:55:00;35.38;;;23.55;;
84411;SDS011;74609;44.028;20.950;2024-01-15T10:57:26;35.08;;;23.45;;
84411;SDS011;74609;44.028;20.950;2024-01-15T10:59:53;40.63;;;26.00;;
84411;SDS011;74609;44.028;20.950;2024-01-15T11:02:19;40.15;;;26.65;;
84411;SDS011;74609;44.028;20.950;2024-01-15T11:04:45;42.85;;;26.45;;
84411;SDS011;74609;44.028;20.950;2024-01-15T11:07:11;30.63;;;20.80;;
84411;SDS011;74609;44.028;20.950;2024-01-15T11:09:39;33.53;;;22.77;;
84411;SDS011;74609;44.028;20.950;2024-01-15T11:12:11;41.60;;;26.88;;
84411;SDS011;74609;44.028;20.950;2024-01-15T11:17:04;35.15;;;24.48;;
84411;SDS011;74609;44.028;20.950;2024-01-15T11:19:51;33.47;;;23.33;;
84411;SDS011;74609;44.028;20.950;2024-01-15T11:24:55;71.63;;;46.35;;
84411;SDS011;74609;44.028;20.950;2024-01-15T11:30:09;57.88;;;39.08;;
84411;SDS011;74609;44.028;20.950;2024-01-15T11:32:35;64.22;;;41.40;;
84411;SDS011;74609;44.028;20.950;2024-01-15T11:35:02;48.75;;;32.80;;
84411;SDS011;74609;44.028;20.950;2024-01-15T11:43:00;48.60;;;32.30;;
84411;SDS011;74609;44.028;20.950;2024-01-15T11:45:28;39.67;;;28.98;;
84411;SDS011;74609;44.028;20.950;2024-01-15T11:50:24;42.35;;;29.98;;
84411;SDS011;74609;44.028;20.950;2024-01-15T11:53:02;67.07;;;44.13;;
84411;SDS011;74609;44.028;20.950;2024-01-15T11:55:35;46.85;;;31.17;;
84411;SDS011;74609;44.028;20.950;2024-01-15T11:58:01;40.90;;;27.98;;
84411;SDS011;74609;44.028;20.950;2024-01-15T12:00:28;40.25;;;26.77;;
84411;SDS011;74609;44.028;20.950;2024-01-15T12:02:54;40.08;;;25.92;;
84411;SDS011;74609;44.028;20.950;2024-01-15T12:05:21;38.15;;;26.42;;
84411;SDS011;74609;44.028;20.950;2024-01-15T12:07:48;42.67;;;28.40;;
84411;SDS011;74609;44.028;20.950;2024-01-15T12:10:15;54.25;;;36.90;;
84411;SDS011;74609;44.028;20.950;2024-01-15T12:15:12;53.15;;;38.72;;
84411;SDS011;74609;44.028;20.950;2024-01-15T12:17:38;75.47;;;51.67;;
84411;SDS011;74609;44.028;20.950;2024-01-15T12:20:04;92.95;;;60.55;;
84411;SDS011;74609;44.028;20.950;2024-01-15T12:22:31;93.55;;;62.70;;
84411;SDS011;74609;44.028;20.950;2024-01-15T12:24:57;36.25;;;23.67;;
84411;SDS011;74609;44.028;20.950;2024-01-15T12:27:23;51.95;;;32.58;;
84411;SDS011;74609;44.028;20.950;2024-01-15T12:29:49;43.25;;;31.20;;
84411;SDS011;74609;44.028;20.950;2024-01-15T12:32:16;53.10;;;36.75;;
84411;SDS011;74609;44.028;20.950;2024-01-15T12:34:42;50.75;;;33.33;;
84411;SDS011;74609;44.028;20.950;2024-01-15T12:37:09;42.25;;;28.50;;
84411;SDS011;74609;44.028;20.950;2024-01-15T12:39:36;43.40;;;30.52;;
84411;SDS011;74609;44.028;20.950;2024-01-15T12:42:02;34.40;;;24.90;;
84411;SDS011;74609;44.028;20.950;2024-01-15T12:44:30;79.05;;;52.78;;
84411;SDS011;74609;44.028;20.950;2024-01-15T12:46:57;82.15;;;54.50;;
84411;SDS011;74609;44.028;20.950;2024-01-15T12:49:25;101.88;;;66.53;;
84411;SDS011;74609;44.028;20.950;2024-01-15T12:51:52;109.47;;;72.40;;
84411;SDS011;74609;44.028;20.950;2024-01-15T12:54:18;106.47;;;72.70;;
84411;SDS011;74609;44.028;20.950;2024-01-15T12:56:45;48.78;;;31.10;;
84411;SDS011;74609;44.028;20.950;2024-01-15T12:59:11;54.00;;;39.35;;
84411;SDS011;74609;44.028;20.950;2024-01-15T13:01:37;65.97;;;46.53;;
84411;SDS011;74609;44.028;20.950;2024-01-15T13:04:04;56.50;;;40.25;;
84411;SDS011;74609;44.028;20.950;2024-01-15T13:06:33;57.95;;;39.20;;
84411;SDS011;74609;44.028;20.950;2024-01-15T13:08:59;61.88;;;41.25;;
84411;SDS011;74609;44.028;20.950;2024-01-15T13:11:26;59.80;;;42.28;;
84411;SDS011;74609;44.028;20.950;2024-01-15T13:13:52;56.63;;;40.28;;
84411;SDS011;74609;44.028;20.950;2024-01-15T13:16:19;61.25;;;42.40;;
84411;SDS011;74609;44.028;20.950;2024-01-15T13:18:46;50.88;;;33.67;;
84411;SDS011;74609;44.028;20.950;2024-01-15T13:21:12;54.10;;;36.72;;
84411;SDS011;74609;44.028;20.950;2024-01-15T13:23:38;52.30;;;36.47;;
84411;SDS011;74609;44.028;20.950;2024-01-15T13:26:04;53.72;;;38.60;;
84411;SDS011;74609;44.028;20.950;2024-01-15T13:28:30;61.28;;;41.88;;
84411;SDS011;74609;44.028;20.950;2024-01-15T13:30:56;63.42;;;43.13;;
84411;SDS011;74609;44.028;20.950;2024-01-15T13:33:22;43.70;;;32.85;;
84411;SDS011;74609;44.028;20.950;2024-01-15T13:35:48;44.40;;;31.27;;
84411;SDS011;74609;44.028;20.950;2024-01-15T13:38:15;51.85;;;34.05;;
84411;SDS011;74609;44.028;20.950;2024-01-15T13:40:41;33.15;;;23.58;;
84411;SDS011;74609;44.028;20.950;2024-01-15T13:43:10;34.78;;;25.77;;
84411;SDS011;74609;44.028;20.950;2024-01-15T13:45:36;46.45;;;29.92;;
84411;SDS011;74609;44.028;20.950;2024-01-15T13:48:02;48.10;;;30.65;;
84411;SDS011;74609;44.028;20.950;2024-01-15T13:52:59;45.75;;;28.98;;
84411;SDS011;74609;44.028;20.950;2024-01-15T13:55:25;42.28;;;28.00;;
84411;SDS011;74609;44.028;20.950;2024-01-15T13:57:51;50.80;;;35.00;;
84411;SDS011;74609;44.028;20.950;2024-01-15T14:00:18;46.40;;;32.72;;
84411;SDS011;74609;44.028;20.950;2024-01-15T14:02:45;42.28;;;30.50;;
84411;SDS011;74609;44.028;20.950;2024-01-15T14:05:11;56.53;;;39.65;;
84411;SDS011;74609;44.028;20.950;2024-01-15T14:07:40;48.28;;;34.20;;
84411;SDS011;74609;44.028;20.950;2024-01-15T14:10:08;43.42;;;30.35;;
84411;SDS011;74609;44.028;20.950;2024-01-15T14:12:34;51.15;;;35.50;;
84411;SDS011;74609;44.028;20.950;2024-01-15T14:15:01;54.33;;;40.80;;
84411;SDS011;74609;44.028;20.950;2024-01-15T14:17:30;52.85;;;37.45;;
84411;SDS011;74609;44.028;20.950;2024-01-15T14:19:56;50.17;;;35.20;;
84411;SDS011;74609;44.028;20.950;2024-01-15T14:22:22;62.30;;;43.65;;
84411;SDS011;74609;44.028;20.950;2024-01-15T14:24:48;69.32;;;47.00;;
84411;SDS011;74609;44.028;20.950;2024-01-15T14:27:15;62.03;;;43.47;;
84411;SDS011;74609;44.028;20.950;2024-01-15T14:29:42;68.43;;;47.03;;
84411;SDS011;74609;44.028;20.950;2024-01-15T14:32:08;55.13;;;39.40;;
84411;SDS011;74609;44.028;20.950;2024-01-15T14:34:34;64.07;;;45.92;;